createdAt,value
2023-04-22T00:03:22.604Z,5.67
2023-04-22T00:08:26.885Z,6.40
2023-04-22T00:13:30.814Z,5.87
2023-04-22T00:18:38.411Z,5.67
2023-04-22T00:23:42.453Z,5.77
2023-04-22T00:28:45.782Z,5.90
2023-04-22T00:33:50.674Z,5.70
2023-04-22T00:38:54.267Z,5.40
2023-04-22T00:43:58.709Z,6.00
2023-04-22T00:49:04.576Z,6.10
2023-04-22T00:54:07.874Z,6.10
2023-04-22T00:59:12.406Z,5.10
2023-04-22T01:04:18.601Z,6.13
2023-04-22T01:09:22.118Z,5.53
2023-04-22T01:14:26.155Z,5.43
2023-04-22T01:19:30.881Z,5.27
2023-04-22T01:24:36.568Z,4.80
2023-04-22T01:29:41.745Z,5.60
2023-04-22T01:34:45.722Z,5.13
2023-04-22T01:39:51.622Z,5.43
2023-04-22T01:44:55.709Z,4.83
2023-04-22T01:49:59.270Z,5.00
2023-04-22T01:55:05.510Z,4.73
2023-04-22T02:00:10.441Z,5.53
2023-04-22T02:05:14.876Z,5.53
2023-04-22T02:10:19.695Z,5.63
2023-04-22T02:15:23.403Z,5.20
2023-04-22T02:20:27.770Z,5.43
2023-04-22T02:25:32.960Z,5.63
2023-04-22T02:30:37.610Z,5.23
2023-04-22T02:35:42.679Z,5.90
2023-04-22T02:40:47.521Z,5.90
2023-04-22T02:45:51.085Z,6.07
2023-04-22T02:50:54.282Z,6.00
2023-04-22T02:56:01.264Z,5.70
2023-04-22T03:01:04.834Z,5.73
2023-04-22T03:06:08.703Z,6.20
2023-04-22T03:11:14.406Z,7.00
2023-04-22T03:16:19.057Z,6.67
2023-04-22T03:21:23.139Z,6.30
2023-04-22T03:26:31.092Z,6.47
2023-04-22T03:31:34.847Z,6.37
2023-04-22T03:36:38.746Z,6.30
2023-04-22T03:41:43.639Z,7.60
2023-04-22T03:46:47.161Z,6.77
2023-04-22T03:51:51.959Z,7.53
2023-04-22T03:56:58.368Z,7.20
2023-04-22T04:02:01.889Z,6.23
2023-04-22T04:07:05.687Z,6.80
2023-04-22T04:12:11.940Z,6.83
2023-04-22T04:17:15.405Z,6.70
2023-04-22T04:22:20.123Z,6.87
2023-04-22T04:27:28.502Z,7.47
2023-04-22T04:32:34.866Z,7.00
2023-04-22T04:37:40.860Z,6.10
2023-04-22T04:42:45.773Z,6.23
2023-04-22T04:47:50.953Z,6.63
2023-04-22T04:52:54.539Z,6.80
2023-04-22T04:57:59.465Z,6.63
2023-04-22T05:03:03.831Z,7.03
2023-04-22T05:08:07.326Z,7.43
2023-04-22T05:13:12.289Z,7.07
2023-04-22T05:18:16.132Z,6.50
2023-04-22T05:23:21.155Z,6.37
2023-04-22T05:28:26.994Z,6.67
2023-04-22T05:33:30.543Z,6.00
2023-04-22T05:38:33.847Z,5.85
2023-04-22T05:43:41.780Z,5.82
2023-04-22T05:48:45.890Z,5.65
2023-04-22T05:53:49.805Z,5.50
2023-04-22T05:58:54.801Z,5.25
2023-04-22T06:04:00.854Z,5.18
2023-04-22T06:09:04.704Z,5.28
2023-04-22T06:14:09.732Z,5.55
2023-04-22T06:19:13.040Z,5.18
2023-04-22T06:24:16.473Z,4.70
2023-04-22T06:29:29.564Z,5.43
2023-04-22T06:34:35.346Z,5.00
2023-04-22T06:39:39.433Z,4.93
2023-04-22T06:44:45.030Z,4.88
2023-04-22T06:49:50.597Z,4.93
2023-04-22T06:54:53.952Z,4.95
2023-04-22T07:00:02.668Z,4.25
2023-04-22T07:05:07.080Z,4.50
2023-04-22T07:10:15.192Z,4.80
2023-04-22T07:15:21.221Z,4.45
2023-04-22T07:20:24.865Z,4.28
2023-04-22T07:25:28.389Z,4.35
2023-04-22T07:30:33.455Z,4.07
2023-04-22T07:35:37.665Z,3.97
2023-04-22T07:40:42.281Z,4.53
2023-04-22T07:45:47.491Z,3.58
2023-04-22T07:50:51.028Z,3.13
2023-04-22T07:55:55.097Z,3.90
2023-04-22T08:01:04.732Z,3.58
2023-04-22T08:06:08.998Z,3.65
2023-04-22T08:11:17.285Z,3.45
2023-04-22T08:16:23.606Z,3.58
2023-04-22T08:21:27.501Z,3.60
2023-04-22T08:26:31.639Z,3.08
2023-04-22T08:31:37.298Z,3.42
2023-04-22T08:36:41.250Z,3.30
2023-04-22T08:41:59.138Z,3.05
2023-04-22T08:47:09.592Z,3.22
2023-04-22T08:52:15.959Z,3.40
2023-04-22T08:57:22.161Z,2.45
2023-04-22T09:02:30.728Z,2.83
2023-04-22T09:07:35.637Z,2.53
2023-04-22T09:12:40.149Z,3.13
2023-04-22T09:18:00.960Z,3.67
2023-04-22T09:23:06.856Z,3.22
2023-04-22T09:28:15.380Z,2.90
2023-04-22T09:33:20.425Z,2.58
2023-04-22T09:38:24.049Z,2.92
2023-04-22T09:43:27.779Z,2.80
2023-04-22T09:48:32.449Z,3.28
2023-04-22T09:53:40.234Z,3.70
2023-04-22T09:58:44.889Z,3.80
2023-04-22T10:03:55.167Z,3.08
2023-04-22T10:09:02.775Z,3.17
2023-04-22T10:14:07.288Z,3.17
2023-04-22T10:19:18.109Z,3.08
2023-04-22T10:24:30.043Z,3.10
2023-04-22T10:29:42.667Z,2.95
2023-04-22T10:34:50.648Z,2.97
2023-04-22T10:40:09.502Z,2.75
2023-04-22T10:45:16.139Z,2.58
2023-04-22T10:50:31.512Z,2.75
2023-04-22T10:55:53.641Z,2.50
2023-04-22T11:01:03.440Z,2.72
2023-04-22T11:06:27.945Z,2.17
2023-04-22T11:11:35.173Z,2.53
2023-04-22T11:16:40.204Z,2.20
2023-04-22T11:21:45.677Z,2.50
2023-04-22T11:26:49.791Z,2.40
2023-04-22T11:31:54.354Z,2.42
2023-04-22T11:36:59.672Z,2.30
2023-04-22T11:42:04.244Z,2.42
2023-04-22T11:47:09.564Z,2.50
2023-04-22T11:52:23.144Z,2.05
2023-04-22T11:57:27.378Z,2.25
2023-04-22T12:02:31.136Z,2.20
2023-04-22T12:07:36.360Z,2.10
2023-04-22T12:12:41.609Z,2.00
2023-04-22T12:17:46.547Z,2.80
2023-04-22T12:22:54.514Z,2.83
2023-04-22T12:27:58.321Z,2.42
2023-04-22T12:33:02.193Z,1.90
2023-04-22T12:38:21.853Z,2.33
2023-04-22T12:43:26.613Z,2.33
2023-04-22T12:48:32.424Z,2.10
2023-04-22T12:53:38.682Z,1.95
2023-04-22T12:58:43.682Z,2.00
2023-04-22T13:03:48.248Z,1.98
2023-04-22T13:08:53.788Z,1.80
2023-04-22T13:13:57.815Z,1.92
2023-04-22T13:19:04.861Z,2.28
2023-04-22T13:24:10.568Z,1.92
2023-04-22T13:29:14.707Z,2.03
2023-04-22T13:34:19.667Z,3.20
2023-04-22T13:39:25.230Z,2.00
2023-04-22T13:44:29.180Z,2.00
2023-04-22T13:49:32.677Z,1.65
2023-04-22T13:54:38.140Z,2.03
2023-04-22T13:59:43.353Z,2.03
2023-04-22T14:04:48.482Z,2.10
2023-04-22T14:09:53.914Z,2.03
2023-04-22T14:14:58.983Z,2.00
2023-04-22T14:20:02.427Z,2.00
2023-04-22T14:25:08.691Z,2.10
2023-04-22T14:30:22.430Z,2.85
2023-04-22T14:35:26.319Z,4.28
2023-04-22T14:40:31.761Z,2.58
2023-04-22T14:45:35.428Z,1.80
2023-04-22T14:50:40.186Z,2.05
2023-04-22T14:55:45.636Z,1.88
2023-04-22T15:00:49.666Z,1.90
2023-04-22T15:05:53.596Z,2.10
2023-04-22T15:11:00.057Z,2.00
2023-04-22T15:16:03.642Z,2.13
2023-04-22T15:21:10.391Z,2.05
2023-04-22T15:26:15.464Z,3.00
2023-04-22T15:31:19.386Z,2.30
2023-04-22T15:36:24.095Z,9.23
2023-04-22T15:41:30.162Z,1.90
2023-04-22T15:46:36.160Z,2.20
2023-04-22T15:51:42.262Z,2.88
2023-04-22T15:56:52.540Z,2.33
2023-04-22T16:01:58.679Z,2.20
2023-04-22T16:07:03.413Z,3.10
2023-04-22T16:12:15.023Z,2.25
2023-04-22T16:17:19.154Z,2.20
2023-04-22T16:22:23.340Z,3.13
2023-04-22T16:27:29.225Z,2.20
2023-04-22T16:32:34.199Z,3.28
2023-04-22T16:37:38.634Z,2.15
2023-04-22T16:42:45.828Z,3.80
2023-04-22T16:47:50.640Z,2.30
2023-04-22T16:52:57.232Z,2.45
2023-04-22T16:58:04.476Z,3.03
2023-04-22T17:03:16.741Z,2.80
2023-04-22T17:08:22.366Z,3.05
2023-04-22T17:13:29.463Z,2.85
2023-04-22T17:18:35.092Z,2.90
2023-04-22T17:23:39.452Z,4.40
2023-04-22T17:28:51.097Z,3.85
2023-04-22T17:33:55.696Z,2.60
2023-04-22T17:38:59.827Z,2.92
2023-04-22T17:44:07.633Z,3.67
2023-04-22T17:49:12.485Z,3.38
2023-04-22T17:54:15.965Z,2.45
2023-04-22T17:59:21.347Z,3.22
2023-04-22T18:04:25.080Z,3.45
2023-04-22T18:09:29.098Z,2.67
2023-04-22T18:14:33.952Z,3.70
2023-04-22T18:19:41.649Z,3.13
2023-04-22T18:24:46.071Z,3.40
2023-04-22T18:29:52.080Z,3.60
2023-04-22T18:34:55.924Z,3.33
2023-04-22T18:40:06.921Z,3.53
2023-04-22T18:45:21.379Z,3.42
2023-04-22T18:50:25.574Z,3.25
2023-04-22T18:55:29.945Z,3.55
2023-04-22T19:00:35.240Z,3.50
2023-04-22T19:05:41.019Z,4.05
2023-04-22T19:10:44.713Z,4.20
2023-04-22T19:15:50.068Z,5.25
2023-04-22T19:20:55.806Z,5.93
2023-04-22T19:26:17.312Z,6.07
2023-04-22T19:31:23.757Z,6.07
2023-04-22T19:36:28.579Z,6.63
2023-04-22T19:41:35.383Z,5.68
2023-04-22T19:46:41.148Z,5.45
2023-04-22T19:51:47.254Z,5.43
2023-04-22T19:56:53.291Z,5.38
2023-04-22T20:01:59.070Z,5.32
2023-04-22T20:07:04.282Z,4.97
2023-04-22T20:12:09.600Z,5.30
2023-04-22T20:17:16.070Z,4.63
2023-04-22T20:22:20.525Z,5.03
2023-04-22T20:27:27.406Z,4.40
2023-04-22T20:32:34.268Z,4.55
2023-04-22T20:37:40.461Z,3.53
2023-04-22T20:42:44.755Z,3.70
2023-04-22T20:47:50.082Z,3.85
2023-04-22T20:52:54.670Z,3.53
2023-04-22T20:57:59.254Z,3.55
2023-04-22T21:03:04.997Z,3.53
2023-04-22T21:08:22.878Z,3.67
2023-04-22T21:13:29.863Z,3.58
2023-04-22T21:18:35.958Z,4.03
2023-04-22T21:23:42.668Z,4.25
2023-04-22T21:28:48.740Z,3.90
2023-04-22T21:33:54.405Z,4.38
2023-04-22T21:38:58.798Z,4.40
2023-04-22T21:44:02.812Z,4.10
2023-04-22T21:49:08.324Z,4.28
2023-04-22T21:54:13.272Z,4.38
2023-04-22T21:59:16.563Z,4.22
2023-04-22T22:04:23.567Z,4.50
2023-04-22T22:09:27.865Z,4.15
2023-04-22T22:14:31.476Z,4.07
2023-04-22T22:19:39.410Z,4.00
2023-04-22T22:24:46.807Z,4.15
2023-04-22T22:29:51.227Z,4.50
2023-04-22T22:35:04.154Z,4.60
2023-04-22T22:40:09.167Z,4.88
2023-04-22T22:45:13.750Z,4.18
2023-04-22T22:50:30.764Z,4.07
2023-04-22T22:55:34.585Z,4.10
2023-04-22T23:00:40.664Z,4.10
2023-04-22T23:05:47.207Z,5.10
2023-04-22T23:10:50.721Z,3.92
2023-04-22T23:15:54.640Z,4.13
2023-04-22T23:21:16.569Z,3.67
2023-04-22T23:26:21.663Z,3.83
2023-04-22T23:31:26.689Z,4.05
2023-04-22T23:36:33.756Z,4.28
2023-04-22T23:41:38.220Z,4.47
2023-04-22T23:46:42.483Z,4.45
2023-04-22T23:51:47.437Z,4.60
2023-04-22T23:56:52.139Z,4.10
